Terminal Aerodrome Forecast
Issued by NWS Sioux Falls, SD

Home | Current Version | Previous Version | Text Only | Print | Product List | Glossary On
Versions: 1 2 3 4 5 6 7 8 9 10 11 12 13 14 15 16 17 18 19 20 21 22 23
000
FTUS43 KFSD 291353 AAB
TAFFSD
TAF AMD
KFSD 291353Z 2914/3012 03014KT P6SM SCT040 BKN100
     FM291900 36014G20KT P6SM SCT100
     FM300000 35012KT P6SM SKC
     FM300800 33007KT P6SM SCT250=

USA.gov is the U.S. government's official web portal to all federal, state and local government web resources and services.